sensor_id;sensor_type;location;lat;lon;timestamp;pressure;altitude;pressure_sealevel;temperature;humidity
49645;BME280;36494;50.730;-1.932;2023-09-19T00:01:28;100428.43;;;14.35;100.00
49645;BME280;36494;50.730;-1.932;2023-09-19T00:03:53;100429.05;;;14.37;100.00
49645;BME280;36494;50.730;-1.932;2023-09-19T00:06:18;100424.68;;;14.40;100.00
49645;BME280;36494;50.730;-1.932;2023-09-19T00:08:44;100418.66;;;14.40;100.00
49645;BME280;36494;50.730;-1.932;2023-09-19T00:11:10;100421.08;;;14.43;100.00
49645;BME280;36494;50.730;-1.932;2023-09-19T00:13:36;100421.92;;;14.41;100.00
49645;BME280;36494;50.730;-1.932;2023-09-19T00:16:01;100420.60;;;14.41;100.00
49645;BME280;36494;50.730;-1.932;2023-09-19T00:18:26;100420.01;;;14.32;100.00
49645;BME280;36494;50.730;-1.932;2023-09-19T00:20:52;100418.95;;;14.32;100.00
49645;BME280;36494;50.730;-1.932;2023-09-19T00:23:17;100421.11;;;14.36;100.00
49645;BME280;36494;50.730;-1.932;2023-09-19T00:25:43;100420.74;;;14.41;100.00
49645;BME280;36494;50.730;-1.932;2023-09-19T00:28:08;100419.53;;;14.43;100.00
49645;BME280;36494;50.730;-1.932;2023-09-19T00:30:34;100420.76;;;14.44;100.00
49645;BME280;36494;50.730;-1.932;2023-09-19T00:32:59;100416.95;;;14.44;100.00
49645;BME280;36494;50.730;-1.932;2023-09-19T00:35:25;100416.30;;;14.42;100.00
49645;BME280;36494;50.730;-1.932;2023-09-19T00:37:51;100410.63;;;14.44;100.00
49645;BME280;36494;50.730;-1.932;2023-09-19T00:40:16;100407.65;;;14.42;100.00
49645;BME280;36494;50.730;-1.932;2023-09-19T00:42:42;100405.69;;;14.40;100.00
49645;BME280;36494;50.730;-1.932;2023-09-19T00:45:07;100403.25;;;14.40;100.00
49645;BME280;36494;50.730;-1.932;2023-09-19T00:47:32;100405.15;;;14.39;100.00
49645;BME280;36494;50.730;-1.932;2023-09-19T00:49:58;100407.00;;;14.38;100.00
49645;BME280;36494;50.730;-1.932;2023-09-19T00:52:23;100398.99;;;14.34;100.00
49645;BME280;36494;50.730;-1.932;2023-09-19T00:54:49;100403.13;;;14.35;100.00
49645;BME280;36494;50.730;-1.932;2023-09-19T00:57:14;100401.99;;;14.38;100.00
49645;BME280;36494;50.730;-1.932;2023-09-19T00:59:39;100404.04;;;14.39;100.00
49645;BME280;36494;50.730;-1.932;2023-09-19T01:02:05;100397.11;;;14.39;100.00
49645;BME280;36494;50.730;-1.932;2023-09-19T01:04:31;100391.00;;;14.38;100.00
49645;BME280;36494;50.730;-1.932;2023-09-19T01:06:55;100388.10;;;14.37;100.00
49645;BME280;36494;50.730;-1.932;2023-09-19T01:09:20;100384.54;;;14.33;100.00
49645;BME280;36494;50.730;-1.932;2023-09-19T01:11:48;100384.16;;;14.35;100.00
49645;BME280;36494;50.730;-1.932;2023-09-19T01:14:19;100384.36;;;14.34;100.00
49645;BME280;36494;50.730;-1.932;2023-09-19T01:16:42;100384.66;;;14.37;100.00
49645;BME280;36494;50.730;-1.932;2023-09-19T01:19:13;100387.36;;;14.38;100.00
49645;BME280;36494;50.730;-1.932;2023-09-19T01:21:30;100388.93;;;14.39;100.00
49645;BME280;36494;50.730;-1.932;2023-09-19T01:24:10;100385.45;;;14.43;100.00
49645;BME280;36494;50.730;-1.932;2023-09-19T01:26:29;100382.51;;;14.46;100.00
49645;BME280;36494;50.730;-1.932;2023-09-19T01:28:52;100379.06;;;14.47;100.00
49645;BME280;36494;50.730;-1.932;2023-09-19T01:31:11;100378.67;;;14.48;100.00
49645;BME280;36494;50.730;-1.932;2023-09-19T01:33:54;100371.12;;;14.54;100.00
49645;BME280;36494;50.730;-1.932;2023-09-19T01:36:01;100371.96;;;14.50;100.00
49645;BME280;36494;50.730;-1.932;2023-09-19T01:38:27;100368.52;;;14.55;100.00
49645;BME280;36494;50.730;-1.932;2023-09-19T01:40:57;100374.82;;;14.59;100.00
49645;BME280;36494;50.730;-1.932;2023-09-19T01:43:22;100375.49;;;14.61;100.00
49645;BME280;36494;50.730;-1.932;2023-09-19T01:45:48;100375.61;;;14.62;100.00
49645;BME280;36494;50.730;-1.932;2023-09-19T01:48:18;100373.62;;;14.65;100.00
49645;BME280;36494;50.730;-1.932;2023-09-19T01:50:38;100371.68;;;14.63;100.00
49645;BME280;36494;50.730;-1.932;2023-09-19T01:53:04;100373.73;;;14.67;100.00
49645;BME280;36494;50.730;-1.932;2023-09-19T01:55:26;100371.73;;;14.70;100.00
49645;BME280;36494;50.730;-1.932;2023-09-19T01:57:58;100365.97;;;14.70;100.00
49645;BME280;36494;50.730;-1.932;2023-09-19T02:00:18;100368.57;;;14.76;100.00
49645;BME280;36494;50.730;-1.932;2023-09-19T02:02:43;100368.07;;;14.76;100.00
49645;BME280;36494;50.730;-1.932;2023-09-19T02:05:06;100368.54;;;14.78;100.00
49645;BME280;36494;50.730;-1.932;2023-09-19T02:07:31;100370.41;;;14.79;100.00
49645;BME280;36494;50.730;-1.932;2023-09-19T02:09:56;100384.85;;;14.82;100.00
49645;BME280;36494;50.730;-1.932;2023-09-19T02:12:22;100380.43;;;14.85;100.00
49645;BME280;36494;50.730;-1.932;2023-09-19T02:14:47;100374.21;;;14.88;100.00
49645;BME280;36494;50.730;-1.932;2023-09-19T02:17:13;100372.19;;;14.93;100.00
49645;BME280;36494;50.730;-1.932;2023-09-19T02:19:38;100376.72;;;14.97;100.00
49645;BME280;36494;50.730;-1.932;2023-09-19T02:22:04;100376.43;;;15.03;100.00
49645;BME280;36494;50.730;-1.932;2023-09-19T02:24:30;100370.85;;;15.04;100.00
49645;BME280;36494;50.730;-1.932;2023-09-19T02:26:55;100374.88;;;15.07;100.00
49645;BME280;36494;50.730;-1.932;2023-09-19T02:29:20;100369.13;;;15.06;100.00
49645;BME280;36494;50.730;-1.932;2023-09-19T02:31:45;100368.04;;;15.08;100.00
49645;BME280;36494;50.730;-1.932;2023-09-19T02:34:10;100369.73;;;15.10;100.00
49645;BME280;36494;50.730;-1.932;2023-09-19T02:36:36;100370.75;;;15.14;100.00
49645;BME280;36494;50.730;-1.932;2023-09-19T02:39:02;100371.25;;;15.19;100.00
49645;BME280;36494;50.730;-1.932;2023-09-19T02:41:27;100366.07;;;15.18;100.00
49645;BME280;36494;50.730;-1.932;2023-09-19T02:43:52;100367.88;;;15.23;100.00
49645;BME280;36494;50.730;-1.932;2023-09-19T02:46:17;100358.37;;;15.26;100.00
49645;BME280;36494;50.730;-1.932;2023-09-19T02:48:43;100355.04;;;15.30;100.00
49645;BME280;36494;50.730;-1.932;2023-09-19T02:51:08;100351.08;;;15.35;100.00
49645;BME280;36494;50.730;-1.932;2023-09-19T02:53:33;100345.05;;;15.35;100.00
49645;BME280;36494;50.730;-1.932;2023-09-19T02:55:59;100346.79;;;15.39;100.00
49645;BME280;36494;50.730;-1.932;2023-09-19T02:58:25;100342.55;;;15.40;100.00
49645;BME280;36494;50.730;-1.932;2023-09-19T03:00:50;100340.59;;;15.43;100.00
49645;BME280;36494;50.730;-1.932;2023-09-19T03:03:15;100335.18;;;15.48;100.00
49645;BME280;36494;50.730;-1.932;2023-09-19T03:05:41;100331.28;;;15.45;100.00
49645;BME280;36494;50.730;-1.932;2023-09-19T03:08:06;100333.41;;;15.49;100.00
49645;BME280;36494;50.730;-1.932;2023-09-19T03:10:32;100336.45;;;15.51;100.00
49645;BME280;36494;50.730;-1.932;2023-09-19T03:12:58;100329.64;;;15.56;100.00
49645;BME280;36494;50.730;-1.932;2023-09-19T03:15:22;100331.76;;;15.61;100.00
49645;BME280;36494;50.730;-1.932;2023-09-19T03:17:48;100326.97;;;15.62;100.00
49645;BME280;36494;50.730;-1.932;2023-09-19T03:20:14;100323.92;;;15.71;100.00
49645;BME280;36494;50.730;-1.932;2023-09-19T03:22:39;100321.74;;;15.72;100.00
49645;BME280;36494;50.730;-1.932;2023-09-19T03:25:05;100322.43;;;15.71;100.00
49645;BME280;36494;50.730;-1.932;2023-09-19T03:27:30;100325.05;;;15.74;100.00
49645;BME280;36494;50.730;-1.932;2023-09-19T03:29:56;100327.16;;;15.69;100.00
49645;BME280;36494;50.730;-1.932;2023-09-19T03:32:21;100323.23;;;15.63;100.00
49645;BME280;36494;50.730;-1.932;2023-09-19T03:34:47;100326.30;;;15.68;100.00
49645;BME280;36494;50.730;-1.932;2023-09-19T03:37:12;100320.57;;;15.66;100.00
49645;BME280;36494;50.730;-1.932;2023-09-19T03:39:38;100321.15;;;15.62;100.00
49645;BME280;36494;50.730;-1.932;2023-09-19T03:42:03;100320.14;;;15.66;100.00
49645;BME280;36494;50.730;-1.932;2023-09-19T03:44:28;100316.32;;;15.71;100.00
49645;BME280;36494;50.730;-1.932;2023-09-19T03:46:54;100311.30;;;15.68;100.00
49645;BME280;36494;50.730;-1.932;2023-09-19T03:49:19;100307.90;;;15.72;100.00
49645;BME280;36494;50.730;-1.932;2023-09-19T03:51:44;100309.16;;;15.67;100.00
49645;BME280;36494;50.730;-1.932;2023-09-19T03:54:09;100307.43;;;15.70;100.00
49645;BME280;36494;50.730;-1.932;2023-09-19T03:56:35;100306.09;;;15.73;100.00
49645;BME280;36494;50.730;-1.932;2023-09-19T03:59:01;100297.06;;;15.75;100.00
49645;BME280;36494;50.730;-1.932;2023-09-19T04:01:26;100288.34;;;15.70;100.00
49645;BME280;36494;50.730;-1.932;2023-09-19T04:03:52;100283.85;;;15.73;100.00
49645;BME280;36494;50.730;-1.932;2023-09-19T04:06:17;100278.61;;;15.74;100.00
49645;BME280;36494;50.730;-1.932;2023-09-19T04:08:43;100271.81;;;15.70;100.00
49645;BME280;36494;50.730;-1.932;2023-09-19T04:11:08;100266.36;;;15.78;100.00
49645;BME280;36494;50.730;-1.932;2023-09-19T04:13:33;100271.74;;;15.83;100.00
49645;BME280;36494;50.730;-1.932;2023-09-19T04:15:59;100269.09;;;15.85;100.00
49645;BME280;36494;50.730;-1.932;2023-09-19T04:18:24;100265.95;;;15.83;100.00
49645;BME280;36494;50.730;-1.932;2023-09-19T04:20:50;100263.71;;;15.86;100.00
49645;BME280;36494;50.730;-1.932;2023-09-19T04:23:15;100264.02;;;15.82;100.00
49645;BME280;36494;50.730;-1.932;2023-09-19T04:25:41;100271.96;;;15.69;100.00
49645;BME280;36494;50.730;-1.932;2023-09-19T04:28:06;100278.26;;;15.49;100.00
49645;BME280;36494;50.730;-1.932;2023-09-19T04:30:31;100272.72;;;15.25;100.00
49645;BME280;36494;50.730;-1.932;2023-09-19T04:32:57;100279.44;;;15.20;100.00
49645;BME280;36494;50.730;-1.932;2023-09-19T04:35:22;100282.45;;;15.15;100.00
49645;BME280;36494;50.730;-1.932;2023-09-19T04:37:48;100276.79;;;15.23;100.00
49645;BME280;36494;50.730;-1.932;2023-09-19T04:40:13;100279.36;;;15.29;100.00
49645;BME280;36494;50.730;-1.932;2023-09-19T04:42:39;100277.00;;;15.29;100.00
49645;BME280;36494;50.730;-1.932;2023-09-19T04:45:04;100277.60;;;15.30;100.00
49645;BME280;36494;50.730;-1.932;2023-09-19T04:47:29;100270.71;;;15.28;100.00
49645;BME280;36494;50.730;-1.932;2023-09-19T04:49:54;100277.96;;;15.26;100.00
49645;BME280;36494;50.730;-1.932;2023-09-19T04:52:19;100281.58;;;15.27;100.00
49645;BME280;36494;50.730;-1.932;2023-09-19T04:54:45;100276.97;;;15.36;100.00
49645;BME280;36494;50.730;-1.932;2023-09-19T04:57:11;100272.15;;;15.43;100.00
49645;BME280;36494;50.730;-1.932;2023-09-19T04:59:36;100272.98;;;15.38;100.00
49645;BME280;36494;50.730;-1.932;2023-09-19T05:02:02;100280.95;;;15.44;100.00
49645;BME280;36494;50.730;-1.932;2023-09-19T05:04:27;100283.85;;;15.46;100.00
49645;BME280;36494;50.730;-1.932;2023-09-19T05:06:53;100281.18;;;15.45;100.00
49645;BME280;36494;50.730;-1.932;2023-09-19T05:09:18;100269.22;;;15.41;100.00
49645;BME280;36494;50.730;-1.932;2023-09-19T05:11:44;100261.32;;;15.45;100.00
49645;BME280;36494;50.730;-1.932;2023-09-19T05:14:09;100260.63;;;15.50;100.00
49645;BME280;36494;50.730;-1.932;2023-09-19T05:16:34;100256.29;;;15.50;100.00
49645;BME280;36494;50.730;-1.932;2023-09-19T05:18:59;100251.21;;;15.48;100.00
49645;BME280;36494;50.730;-1.932;2023-09-19T05:21:25;100250.43;;;15.51;100.00
49645;BME280;36494;50.730;-1.932;2023-09-19T05:23:51;100249.58;;;15.53;100.00
49645;BME280;36494;50.730;-1.932;2023-09-19T05:26:15;100243.77;;;15.54;100.00
49645;BME280;36494;50.730;-1.932;2023-09-19T05:28:40;100247.48;;;15.58;100.00
49645;BME280;36494;50.730;-1.932;2023-09-19T05:31:06;100245.76;;;15.51;100.00
49645;BME280;36494;50.730;-1.932;2023-09-19T05:33:31;100252.78;;;15.57;100.00
49645;BME280;36494;50.730;-1.932;2023-09-19T05:35:57;100251.23;;;15.58;100.00
49645;BME280;36494;50.730;-1.932;2023-09-19T05:38:22;100251.23;;;15.63;100.00
49645;BME280;36494;50.730;-1.932;2023-09-19T05:40:48;100246.18;;;15.69;100.00
49645;BME280;36494;50.730;-1.932;2023-09-19T05:43:13;100241.54;;;15.67;100.00
49645;BME280;36494;50.730;-1.932;2023-09-19T05:45:39;100241.15;;;15.68;100.00
49645;BME280;36494;50.730;-1.932;2023-09-19T05:48:09;100236.41;;;15.69;100.00
49645;BME280;36494;50.730;-1.932;2023-09-19T05:50:30;100242.57;;;15.71;100.00
49645;BME280;36494;50.730;-1.932;2023-09-19T05:52:56;100229.52;;;15.76;100.00
49645;BME280;36494;50.730;-1.932;2023-09-19T05:55:21;100234.58;;;15.75;100.00
49645;BME280;36494;50.730;-1.932;2023-09-19T05:57:49;100232.23;;;15.79;100.00
49645;BME280;36494;50.730;-1.932;2023-09-19T06:00:13;100228.18;;;15.87;100.00
49645;BME280;36494;50.730;-1.932;2023-09-19T06:02:37;100228.95;;;15.88;100.00
49645;BME280;36494;50.730;-1.932;2023-09-19T06:05:04;100226.26;;;15.79;100.00
49645;BME280;36494;50.730;-1.932;2023-09-19T06:07:29;100223.62;;;15.85;100.00
49645;BME280;36494;50.730;-1.932;2023-09-19T06:09:56;100232.22;;;15.86;100.00
49645;BME280;36494;50.730;-1.932;2023-09-19T06:12:21;100222.83;;;15.89;100.00
49645;BME280;36494;50.730;-1.932;2023-09-19T06:14:46;100228.05;;;15.77;100.00
49645;BME280;36494;50.730;-1.932;2023-09-19T06:17:12;100220.94;;;15.68;100.00
49645;BME280;36494;50.730;-1.932;2023-09-19T06:19:37;100214.71;;;15.68;100.00
49645;BME280;36494;50.730;-1.932;2023-09-19T06:22:03;100222.28;;;15.63;100.00
49645;BME280;36494;50.730;-1.932;2023-09-19T06:24:28;100223.10;;;15.66;100.00
49645;BME280;36494;50.730;-1.932;2023-09-19T06:26:53;100233.35;;;15.64;100.00
49645;BME280;36494;50.730;-1.932;2023-09-19T06:29:18;100231.96;;;15.61;100.00
49645;BME280;36494;50.730;-1.932;2023-09-19T06:31:44;100226.28;;;15.67;100.00
49645;BME280;36494;50.730;-1.932;2023-09-19T06:34:09;100223.66;;;15.74;100.00
49645;BME280;36494;50.730;-1.932;2023-09-19T06:36:35;100215.52;;;15.69;100.00
49645;BME280;36494;50.730;-1.932;2023-09-19T06:39:01;100222.28;;;15.78;100.00
49645;BME280;36494;50.730;-1.932;2023-09-19T06:41:26;100223.02;;;15.81;100.00
49645;BME280;36494;50.730;-1.932;2023-09-19T06:43:51;100224.88;;;15.77;100.00
49645;BME280;36494;50.730;-1.932;2023-09-19T06:46:17;100216.58;;;15.85;100.00
49645;BME280;36494;50.730;-1.932;2023-09-19T06:48:43;100222.60;;;15.83;100.00
49645;BME280;36494;50.730;-1.932;2023-09-19T06:51:09;100221.34;;;15.85;100.00
49645;BME280;36494;50.730;-1.932;2023-09-19T06:53:34;100214.07;;;15.86;100.00
49645;BME280;36494;50.730;-1.932;2023-09-19T06:56:00;100203.42;;;15.88;100.00
49645;BME280;36494;50.730;-1.932;2023-09-19T06:58:25;100204.72;;;15.95;100.00
49645;BME280;36494;50.730;-1.932;2023-09-19T07:00:51;100207.75;;;15.95;100.00
49645;BME280;36494;50.730;-1.932;2023-09-19T07:03:17;100207.15;;;15.98;100.00
49645;BME280;36494;50.730;-1.932;2023-09-19T07:05:42;100208.00;;;15.98;100.00
49645;BME280;36494;50.730;-1.932;2023-09-19T07:08:08;100211.03;;;16.01;100.00
49645;BME280;36494;50.730;-1.932;2023-09-19T07:10:33;100207.30;;;16.02;100.00
49645;BME280;36494;50.730;-1.932;2023-09-19T07:12:59;100218.54;;;16.04;100.00
49645;BME280;36494;50.730;-1.932;2023-09-19T07:15:24;100215.87;;;16.06;100.00
49645;BME280;36494;50.730;-1.932;2023-09-19T07:17:50;100218.82;;;16.06;100.00
49645;BME280;36494;50.730;-1.932;2023-09-19T07:20:16;100221.88;;;16.07;100.00
49645;BME280;36494;50.730;-1.932;2023-09-19T07:22:41;100203.76;;;16.05;100.00
49645;BME280;36494;50.730;-1.932;2023-09-19T07:25:07;100213.62;;;16.02;100.00
49645;BME280;36494;50.730;-1.932;2023-09-19T07:27:31;100210.65;;;16.04;100.00
49645;BME280;36494;50.730;-1.932;2023-09-19T07:29:57;100197.54;;;16.05;100.00
49645;BME280;36494;50.730;-1.932;2023-09-19T07:32:23;100191.29;;;16.09;100.00
49645;BME280;36494;50.730;-1.932;2023-09-19T07:34:49;100189.08;;;16.07;100.00
49645;BME280;36494;50.730;-1.932;2023-09-19T07:37:14;100193.15;;;16.06;100.00
49645;BME280;36494;50.730;-1.932;2023-09-19T07:39:39;100199.09;;;16.16;100.00
49645;BME280;36494;50.730;-1.932;2023-09-19T07:42:04;100214.67;;;16.16;100.00
49645;BME280;36494;50.730;-1.932;2023-09-19T07:44:29;100196.38;;;16.17;100.00
49645;BME280;36494;50.730;-1.932;2023-09-19T07:46:55;100203.99;;;16.18;100.00
49645;BME280;36494;50.730;-1.932;2023-09-19T07:49:21;100209.42;;;16.18;100.00
49645;BME280;36494;50.730;-1.932;2023-09-19T07:51:46;100202.84;;;16.18;100.00
49645;BME280;36494;50.730;-1.932;2023-09-19T07:54:12;100203.81;;;16.23;100.00
49645;BME280;36494;50.730;-1.932;2023-09-19T07:56:37;100202.26;;;16.23;100.00
49645;BME280;36494;50.730;-1.932;2023-09-19T07:59:02;100193.44;;;16.31;100.00
49645;BME280;36494;50.730;-1.932;2023-09-19T08:01:28;100203.54;;;16.30;100.00
49645;BME280;36494;50.730;-1.932;2023-09-19T08:03:53;100205.67;;;16.30;100.00
49645;BME280;36494;50.730;-1.932;2023-09-19T08:06:18;100196.53;;;16.29;100.00
49645;BME280;36494;50.730;-1.932;2023-09-19T08:08:44;100198.05;;;16.38;100.00
49645;BME280;36494;50.730;-1.932;2023-09-19T08:11:09;100195.19;;;16.34;100.00
49645;BME280;36494;50.730;-1.932;2023-09-19T08:13:35;100192.75;;;16.36;100.00
49645;BME280;36494;50.730;-1.932;2023-09-19T08:16:00;100188.44;;;16.40;100.00
49645;BME280;36494;50.730;-1.932;2023-09-19T08:18:26;100191.33;;;16.43;100.00
49645;BME280;36494;50.730;-1.932;2023-09-19T08:20:52;100209.64;;;16.50;100.00
49645;BME280;36494;50.730;-1.932;2023-09-19T08:23:17;100208.47;;;16.51;100.00
49645;BME280;36494;50.730;-1.932;2023-09-19T08:25:42;100202.64;;;16.51;100.00
49645;BME280;36494;50.730;-1.932;2023-09-19T08:28:07;100192.43;;;16.49;100.00
49645;BME280;36494;50.730;-1.932;2023-09-19T08:30:33;100191.43;;;16.50;100.00
49645;BME280;36494;50.730;-1.932;2023-09-19T08:32:59;100190.52;;;16.53;100.00
49645;BME280;36494;50.730;-1.932;2023-09-19T08:35:25;100193.71;;;16.47;100.00
49645;BME280;36494;50.730;-1.932;2023-09-19T08:37:50;100195.17;;;16.49;100.00
49645;BME280;36494;50.730;-1.932;2023-09-19T08:40:15;100206.80;;;16.51;100.00
49645;BME280;36494;50.730;-1.932;2023-09-19T08:42:48;100198.08;;;16.55;100.00
49645;BME280;36494;50.730;-1.932;2023-09-19T08:45:06;100207.80;;;16.54;100.00
49645;BME280;36494;50.730;-1.932;2023-09-19T08:47:36;100211.40;;;16.49;100.00
49645;BME280;36494;50.730;-1.932;2023-09-19T08:50:01;100213.08;;;16.38;100.00
49645;BME280;36494;50.730;-1.932;2023-09-19T08:52:25;100212.51;;;16.30;100.00
49645;BME280;36494;50.730;-1.932;2023-09-19T08:54:48;100210.83;;;16.33;100.00
49645;BME280;36494;50.730;-1.932;2023-09-19T08:57:13;100219.37;;;16.38;100.00
49645;BME280;36494;50.730;-1.932;2023-09-19T08:59:38;100217.76;;;16.27;100.00
49645;BME280;36494;50.730;-1.932;2023-09-19T09:02:04;100218.89;;;16.24;100.00
49645;BME280;36494;50.730;-1.932;2023-09-19T09:04:30;100220.04;;;16.20;100.00
49645;BME280;36494;50.730;-1.932;2023-09-19T09:06:55;100224.02;;;16.21;100.00
49645;BME280;36494;50.730;-1.932;2023-09-19T09:09:21;100226.46;;;16.18;100.00
49645;BME280;36494;50.730;-1.932;2023-09-19T09:11:48;100229.50;;;16.11;100.00
49645;BME280;36494;50.730;-1.932;2023-09-19T09:14:13;100222.45;;;16.18;100.00
49645;BME280;36494;50.730;-1.932;2023-09-19T09:16:37;100228.69;;;16.23;100.00
49645;BME280;36494;50.730;-1.932;2023-09-19T09:19:03;100230.06;;;16.25;100.00
49645;BME280;36494;50.730;-1.932;2023-09-19T09:21:28;100232.33;;;16.25;100.00
49645;BME280;36494;50.730;-1.932;2023-09-19T09:23:55;100225.93;;;16.21;100.00
49645;BME280;36494;50.730;-1.932;2023-09-19T09:28:46;100230.27;;;16.28;100.00
49645;BME280;36494;50.730;-1.932;2023-09-19T09:31:23;100230.01;;;16.31;100.00
49645;BME280;36494;50.730;-1.932;2023-09-19T09:33:36;100222.92;;;16.24;100.00
49645;BME280;36494;50.730;-1.932;2023-09-19T09:36:02;100224.72;;;16.27;100.00
49645;BME280;36494;50.730;-1.932;2023-09-19T09:38:28;100220.75;;;16.32;100.00
49645;BME280;36494;50.730;-1.932;2023-09-19T09:40:54;100229.65;;;16.30;100.00
49645;BME280;36494;50.730;-1.932;2023-09-19T09:43:26;100222.60;;;16.31;100.00
49645;BME280;36494;50.730;-1.932;2023-09-19T09:45:43;100216.99;;;16.18;100.00
49645;BME280;36494;50.730;-1.932;2023-09-19T09:48:09;100226.96;;;16.25;100.00
49645;BME280;36494;50.730;-1.932;2023-09-19T09:50:35;100225.22;;;16.16;100.00
49645;BME280;36494;50.730;-1.932;2023-09-19T09:53:00;100225.60;;;16.18;100.00
49645;BME280;36494;50.730;-1.932;2023-09-19T09:55:26;100235.90;;;16.15;100.00
49645;BME280;36494;50.730;-1.932;2023-09-19T10:00:16;100239.71;;;16.10;100.00
49645;BME280;36494;50.730;-1.932;2023-09-19T10:02:42;100230.03;;;16.09;100.00
49645;BME280;36494;50.730;-1.932;2023-09-19T10:05:12;100244.65;;;16.07;100.00
49645;BME280;36494;50.730;-1.932;2023-09-19T10:07:33;100231.94;;;16.06;100.00
49645;BME280;36494;50.730;-1.932;2023-09-19T10:09:59;100226.82;;;16.15;100.00
49645;BME280;36494;50.730;-1.932;2023-09-19T10:12:24;100230.83;;;16.07;100.00
49645;BME280;36494;50.730;-1.932;2023-09-19T10:14:49;100230.69;;;16.06;100.00
49645;BME280;36494;50.730;-1.932;2023-09-19T10:17:17;100221.72;;;16.14;100.00
49645;BME280;36494;50.730;-1.932;2023-09-19T10:19:44;100216.36;;;16.20;100.00
49645;BME280;36494;50.730;-1.932;2023-09-19T10:22:06;100219.77;;;16.27;100.00
49645;BME280;36494;50.730;-1.932;2023-09-19T10:24:33;100211.56;;;16.23;100.00
49645;BME280;36494;50.730;-1.932;2023-09-19T10:26:57;100211.19;;;16.18;100.00
49645;BME280;36494;50.730;-1.932;2023-09-19T10:29:23;100218.97;;;16.26;100.00
49645;BME280;36494;50.730;-1.932;2023-09-19T10:31:48;100217.70;;;16.27;100.00
49645;BME280;36494;50.730;-1.932;2023-09-19T10:34:14;100232.08;;;16.30;100.00
49645;BME280;36494;50.730;-1.932;2023-09-19T10:36:39;100221.36;;;16.33;100.00
49645;BME280;36494;50.730;-1.932;2023-09-19T10:39:05;100224.50;;;16.31;100.00
49645;BME280;36494;50.730;-1.932;2023-09-19T10:41:30;100218.82;;;16.31;100.00
49645;BME280;36494;50.730;-1.932;2023-09-19T10:43:56;100223.24;;;16.27;100.00
49645;BME280;36494;50.730;-1.932;2023-09-19T10:46:20;100220.59;;;16.30;100.00
49645;BME280;36494;50.730;-1.932;2023-09-19T10:48:46;100214.21;;;16.24;100.00
49645;BME280;36494;50.730;-1.932;2023-09-19T10:51:15;100212.37;;;16.28;100.00
49645;BME280;36494;50.730;-1.932;2023-09-19T10:53:44;100219.38;;;16.32;100.00
49645;BME280;36494;50.730;-1.932;2023-09-19T10:56:02;100218.06;;;16.30;100.00
49645;BME280;36494;50.730;-1.932;2023-09-19T10:58:28;100220.46;;;16.30;100.00
49645;BME280;36494;50.730;-1.932;2023-09-19T11:00:53;100222.06;;;16.29;100.00
49645;BME280;36494;50.730;-1.932;2023-09-19T11:03:19;100217.61;;;16.37;100.00
49645;BME280;36494;50.730;-1.932;2023-09-19T11:08:10;100228.56;;;16.31;100.00
49645;BME280;36494;50.730;-1.932;2023-09-19T11:10:45;100228.65;;;16.29;100.00
49645;BME280;36494;50.730;-1.932;2023-09-19T11:17:51;100218.75;;;16.33;100.00
49645;BME280;36494;50.730;-1.932;2023-09-19T11:20:22;100216.50;;;16.39;100.00
49645;BME280;36494;50.730;-1.932;2023-09-19T11:27:34;100206.74;;;16.43;100.00
49645;BME280;36494;50.730;-1.932;2023-09-19T11:34:51;100206.28;;;16.41;100.00
49645;BME280;36494;50.730;-1.932;2023-09-19T11:44:35;100191.15;;;16.50;100.00
49645;BME280;36494;50.730;-1.932;2023-09-19T11:47:00;100195.88;;;16.51;100.00
49645;BME280;36494;50.730;-1.932;2023-09-19T11:49:27;100188.97;;;16.55;100.00
49645;BME280;36494;50.730;-1.932;2023-09-19T11:51:51;100184.51;;;16.61;100.00
49645;BME280;36494;50.730;-1.932;2023-09-19T11:54:16;100176.82;;;16.65;100.00
49645;BME280;36494;50.730;-1.932;2023-09-19T11:56:42;100185.39;;;16.63;100.00
49645;BME280;36494;50.730;-1.932;2023-09-19T11:59:08;100175.36;;;16.68;100.00
49645;BME280;36494;50.730;-1.932;2023-09-19T12:01:33;100175.41;;;16.70;100.00
49645;BME280;36494;50.730;-1.932;2023-09-19T12:04:00;100179.65;;;16.75;100.00
49645;BME280;36494;50.730;-1.932;2023-09-19T12:06:25;100180.39;;;16.79;100.00
49645;BME280;36494;50.730;-1.932;2023-09-19T12:08:49;100180.51;;;16.82;100.00
49645;BME280;36494;50.730;-1.932;2023-09-19T12:11:16;100177.29;;;16.77;100.00
49645;BME280;36494;50.730;-1.932;2023-09-19T12:13:42;100174.37;;;16.84;100.00
49645;BME280;36494;50.730;-1.932;2023-09-19T12:16:14;100171.28;;;16.83;100.00
49645;BME280;36494;50.730;-1.932;2023-09-19T12:18:31;100169.25;;;16.89;100.00
49645;BME280;36494;50.730;-1.932;2023-09-19T12:20:56;100165.58;;;16.87;100.00
49645;BME280;36494;50.730;-1.932;2023-09-19T12:23:21;100154.73;;;16.91;100.00
49645;BME280;36494;50.730;-1.932;2023-09-19T12:25:47;100148.01;;;16.89;100.00
49645;BME280;36494;50.730;-1.932;2023-09-19T12:28:13;100161.12;;;16.86;100.00
49645;BME280;36494;50.730;-1.932;2023-09-19T12:30:38;100171.59;;;16.89;100.00
49645;BME280;36494;50.730;-1.932;2023-09-19T12:33:03;100180.12;;;16.91;100.00
49645;BME280;36494;50.730;-1.932;2023-09-19T12:35:29;100193.27;;;16.95;100.00
49645;BME280;36494;50.730;-1.932;2023-09-19T12:37:54;100190.21;;;16.93;100.00
49645;BME280;36494;50.730;-1.932;2023-09-19T12:40:21;100205.94;;;16.90;100.00
49645;BME280;36494;50.730;-1.932;2023-09-19T12:42:45;100199.26;;;16.93;100.00
49645;BME280;36494;50.730;-1.932;2023-09-19T12:45:11;100209.90;;;16.96;100.00
49645;BME280;36494;50.730;-1.932;2023-09-19T12:47:36;100198.86;;;16.96;100.00
49645;BME280;36494;50.730;-1.932;2023-09-19T12:50:08;100195.23;;;16.95;100.00